createdAt,value
2022-11-05T00:03:35.847Z,23.68
2022-11-05T00:07:17.780Z,24.37
2022-11-05T00:10:43.799Z,23.91
2022-11-05T00:14:25.786Z,24.11
2022-11-05T00:17:51.799Z,24.94
2022-11-05T00:21:38.799Z,24.47
2022-11-05T00:25:19.810Z,24.43
2022-11-05T00:28:45.772Z,25.12
2022-11-05T00:32:08.836Z,25.59
2022-11-05T00:35:34.758Z,25.32
2022-11-05T00:38:58.808Z,25.73
2022-11-05T00:42:40.805Z,25.85
2022-11-05T00:46:04.795Z,25.15
2022-11-05T00:49:38.823Z,24.81
2022-11-05T00:53:10.121Z,25.79
2022-11-05T00:56:34.848Z,24.87
2022-11-05T00:59:58.788Z,24.63
2022-11-05T01:03:25.828Z,24.52
2022-11-05T01:06:50.199Z,24.27
2022-11-05T01:10:15.010Z,24.79
2022-11-05T01:13:37.840Z,24.03
2022-11-05T01:17:01.815Z,24.71
2022-11-05T01:20:26.049Z,24.88
2022-11-05T01:23:50.705Z,24.55
2022-11-05T01:27:15.813Z,24.74
2022-11-05T01:30:39.907Z,24.62
2022-11-05T01:34:03.876Z,24.72
2022-11-05T01:37:29.440Z,25.08
2022-11-05T01:40:57.836Z,23.50
2022-11-05T01:44:14.423Z,25.03
2022-11-05T01:47:49.886Z,24.34
2022-11-05T01:51:17.734Z,24.73
2022-11-05T01:54:43.852Z,24.54
2022-11-05T01:58:09.824Z,24.58
2022-11-05T02:01:33.924Z,24.33
2022-11-05T02:05:01.840Z,24.87
2022-11-05T02:08:31.874Z,23.93
2022-11-05T02:11:55.846Z,24.27
2022-11-05T02:15:19.907Z,24.61
2022-11-05T02:18:55.818Z,24.31
2022-11-05T02:22:35.718Z,24.23
2022-11-05T02:26:38.752Z,24.42
2022-11-05T02:30:26.242Z,24.25
2022-11-05T02:34:10.856Z,23.53
2022-11-05T02:37:56.894Z,23.48
2022-11-05T02:41:27.896Z,23.50
2022-11-05T02:45:25.874Z,24.05
2022-11-05T02:48:58.848Z,23.52
2022-11-05T02:52:46.877Z,23.16
2022-11-05T02:56:16.849Z,23.47
2022-11-05T02:59:40.887Z,23.55
2022-11-05T03:03:03.930Z,23.75
2022-11-05T03:06:49.856Z,22.70
2022-11-05T03:10:30.874Z,22.77
2022-11-05T03:14:22.903Z,23.16
2022-11-05T03:18:10.887Z,23.04
2022-11-05T03:21:38.882Z,22.67
2022-11-05T03:25:05.900Z,22.91
2022-11-05T03:28:29.870Z,22.48
2022-11-05T03:31:54.900Z,22.32
2022-11-05T03:35:23.877Z,22.44
2022-11-05T03:38:49.903Z,22.69
2022-11-05T03:42:06.458Z,22.29
2022-11-05T03:45:29.908Z,22.27
2022-11-05T03:49:00.942Z,22.56
2022-11-05T03:52:30.917Z,22.18
2022-11-05T03:56:04.986Z,22.26
2022-11-05T03:59:28.888Z,21.90
2022-11-05T04:02:54.833Z,21.82
2022-11-05T04:06:40.715Z,22.07
2022-11-05T04:10:23.899Z,21.70
2022-11-05T04:13:47.887Z,22.01
2022-11-05T04:17:15.173Z,21.84
2022-11-05T04:20:56.890Z,21.43
2022-11-05T04:24:20.936Z,21.52
2022-11-05T04:27:44.584Z,21.63
2022-11-05T04:31:08.893Z,21.30
2022-11-05T04:34:32.926Z,21.31
2022-11-05T04:37:56.921Z,21.31
2022-11-05T04:41:32.325Z,20.95
2022-11-05T04:44:50.528Z,21.25
2022-11-05T04:48:08.945Z,21.13
2022-11-05T04:51:32.919Z,20.65
2022-11-05T04:54:56.948Z,20.60
2022-11-05T04:58:20.363Z,20.47
2022-11-05T05:01:44.963Z,21.10
2022-11-05T05:05:10.063Z,21.11
2022-11-05T05:08:33.926Z,20.73
2022-11-05T05:11:57.942Z,20.33
2022-11-05T05:15:23.961Z,20.70
2022-11-05T05:18:47.929Z,20.13
2022-11-05T05:22:12.292Z,19.95
2022-11-05T05:25:34.910Z,20.26
2022-11-05T05:28:59.952Z,20.01
2022-11-05T05:32:22.948Z,19.71
2022-11-05T05:35:46.948Z,20.00
2022-11-05T05:39:11.847Z,19.41
2022-11-05T05:42:42.719Z,19.34
2022-11-05T05:46:07.957Z,19.43
2022-11-05T05:49:32.296Z,19.34
2022-11-05T05:52:56.032Z,19.27
2022-11-05T05:56:22.939Z,18.86
2022-11-05T05:59:47.069Z,18.61
2022-11-05T06:03:14.376Z,18.69
2022-11-05T06:06:38.958Z,18.60
2022-11-05T06:10:03.946Z,18.61
2022-11-05T06:13:27.981Z,18.39
2022-11-05T06:16:50.943Z,18.05
2022-11-05T06:20:16.979Z,17.88
2022-11-05T06:23:41.972Z,17.62
2022-11-05T06:27:06.959Z,17.39
2022-11-05T06:30:32.095Z,17.42
2022-11-05T06:33:56.940Z,17.21
2022-11-05T06:37:21.009Z,17.15
2022-11-05T06:40:44.961Z,16.96
2022-11-05T06:44:07.968Z,16.89
2022-11-05T06:47:31.992Z,16.80
2022-11-05T06:50:59.959Z,16.81
2022-11-05T06:54:23.988Z,16.64
2022-11-05T06:57:52.942Z,16.54
2022-11-05T07:01:23.230Z,16.53
2022-11-05T07:04:46.952Z,16.38
2022-11-05T07:08:10.036Z,16.46
2022-11-05T07:11:34.036Z,16.44
2022-11-05T07:14:58.027Z,16.48
2022-11-05T07:18:23.047Z,16.42
2022-11-05T07:21:47.006Z,16.27
2022-11-05T07:25:12.960Z,16.09
2022-11-05T07:28:36.035Z,16.07
2022-11-05T07:32:00.281Z,16.08
2022-11-05T07:35:24.002Z,15.94
2022-11-05T07:38:47.959Z,15.98
2022-11-05T07:42:12.023Z,15.95
2022-11-05T07:45:36.340Z,15.84
2022-11-05T07:48:59.999Z,15.78
2022-11-05T07:52:23.951Z,15.77
2022-11-05T07:55:47.994Z,15.78
2022-11-05T07:59:12.608Z,15.68
2022-11-05T08:02:36.154Z,15.72
2022-11-05T08:06:01.995Z,15.61
2022-11-05T08:09:25.023Z,15.60
2022-11-05T08:12:48.997Z,15.60
2022-11-05T08:16:13.018Z,15.58
2022-11-05T08:19:36.004Z,15.54
2022-11-05T08:23:00.018Z,15.45
2022-11-05T08:26:25.022Z,15.44
2022-11-05T08:29:48.993Z,15.35
2022-11-05T08:33:31.022Z,15.39
2022-11-05T08:36:54.982Z,15.22
2022-11-05T08:40:19.036Z,15.22
2022-11-05T08:43:41.984Z,15.17
2022-11-05T08:47:05.025Z,15.15
2022-11-05T08:50:22.578Z,15.19
2022-11-05T08:53:40.042Z,15.07
2022-11-05T08:57:02.977Z,15.05
2022-11-05T09:00:29.039Z,15.17
2022-11-05T09:03:54.016Z,15.37
2022-11-05T09:07:17.051Z,15.23
2022-11-05T09:10:42.005Z,15.33
2022-11-05T09:14:05.054Z,15.55
2022-11-05T09:17:32.078Z,15.43
2022-11-05T09:20:57.017Z,15.43
2022-11-05T09:24:21.677Z,15.42
2022-11-05T09:27:46.018Z,15.53
2022-11-05T09:31:10.043Z,15.39
2022-11-05T09:34:32.998Z,15.38
2022-11-05T09:38:00.805Z,15.38
2022-11-05T09:41:37.046Z,15.52
2022-11-05T09:45:04.059Z,15.32
2022-11-05T09:48:31.063Z,15.30
2022-11-05T09:51:50.252Z,15.33
2022-11-05T09:55:07.039Z,15.28
2022-11-05T09:58:38.629Z,15.33
2022-11-05T10:02:02.242Z,15.22
2022-11-05T10:05:30.907Z,15.32
2022-11-05T10:08:58.067Z,15.22
2022-11-05T10:12:48.024Z,15.30
2022-11-05T10:16:19.065Z,15.16
2022-11-05T10:19:59.015Z,15.32
2022-11-05T10:23:35.081Z,14.95
2022-11-05T10:26:58.020Z,14.80
2022-11-05T10:30:22.107Z,14.87
2022-11-05T10:34:01.395Z,14.59
2022-11-05T10:37:25.207Z,14.82
2022-11-05T10:40:58.047Z,14.53
2022-11-05T10:44:53.065Z,14.33
2022-11-05T10:48:26.072Z,14.74
2022-11-05T10:51:50.065Z,14.33
2022-11-05T10:55:16.079Z,14.18
2022-11-05T10:58:50.070Z,14.45
2022-11-05T11:02:25.624Z,14.35
2022-11-05T11:05:55.057Z,14.62
2022-11-05T11:09:24.095Z,14.44
2022-11-05T11:12:53.045Z,14.42
2022-11-05T11:16:35.106Z,14.45
2022-11-05T11:20:00.732Z,14.07
2022-11-05T11:23:31.082Z,14.30
2022-11-05T11:26:56.095Z,14.26
2022-11-05T11:30:21.083Z,14.25
2022-11-05T11:33:44.088Z,14.20
2022-11-05T11:37:22.075Z,14.12
2022-11-05T11:40:50.098Z,14.11
2022-11-05T11:44:35.090Z,14.30
2022-11-05T11:48:02.102Z,14.23
2022-11-05T11:51:48.050Z,14.20
2022-11-05T11:55:37.613Z,14.25
2022-11-05T11:59:09.090Z,14.27
2022-11-05T12:03:07.485Z,14.33
2022-11-05T12:06:47.100Z,14.62
2022-11-05T12:10:18.076Z,14.59
2022-11-05T12:13:45.112Z,14.22
2022-11-05T12:17:41.067Z,14.45
2022-11-05T12:21:48.074Z,14.41
2022-11-05T12:25:09.080Z,14.47
2022-11-05T12:32:37.134Z,14.84
2022-11-05T12:36:30.135Z,14.83
2022-11-05T12:39:53.152Z,14.88
2022-11-05T12:43:41.116Z,14.71
2022-11-05T12:47:33.101Z,14.53
2022-11-05T12:51:06.062Z,14.71
2022-11-05T12:54:47.140Z,14.62
2022-11-05T12:58:22.284Z,14.49
2022-11-05T13:01:55.232Z,14.71
2022-11-05T13:05:31.132Z,14.84
2022-11-05T13:09:12.155Z,14.96
2022-11-05T13:12:38.107Z,14.82
2022-11-05T13:16:12.119Z,14.79
2022-11-05T13:19:40.113Z,14.79
2022-11-05T13:23:17.134Z,14.79
2022-11-05T13:26:53.159Z,14.92
2022-11-05T13:30:22.137Z,14.92
2022-11-05T13:34:00.111Z,14.83
2022-11-05T13:37:42.167Z,14.63
2022-11-05T13:41:49.130Z,14.94
2022-11-05T13:45:13.152Z,14.76
2022-11-05T13:48:53.170Z,14.67
2022-11-05T13:52:53.178Z,14.67
2022-11-05T13:56:20.709Z,14.63
2022-11-05T14:00:00.171Z,14.52
2022-11-05T14:03:33.114Z,14.55
2022-11-05T14:06:56.160Z,14.44
2022-11-05T14:10:56.067Z,14.32
2022-11-05T14:14:23.187Z,14.15
2022-11-05T14:18:10.146Z,14.01
2022-11-05T14:21:42.125Z,14.25
2022-11-05T14:25:06.755Z,13.98
2022-11-05T14:28:49.527Z,13.99
2022-11-05T14:32:13.760Z,13.96
2022-11-05T14:35:58.151Z,13.83
2022-11-05T14:39:39.135Z,13.93
2022-11-05T14:43:36.737Z,13.85
2022-11-05T14:47:04.192Z,13.71
2022-11-05T14:50:57.173Z,13.77
2022-11-05T14:54:23.186Z,13.69
2022-11-05T14:57:59.166Z,13.46
2022-11-05T15:01:30.623Z,13.00
2022-11-05T15:04:55.148Z,12.99
2022-11-05T15:08:47.189Z,13.27
2022-11-05T15:12:11.148Z,13.33
2022-11-05T15:15:38.163Z,13.26
2022-11-05T15:19:02.145Z,13.18
2022-11-05T15:22:58.227Z,13.20
2022-11-05T15:26:31.199Z,12.86
2022-11-05T15:29:56.704Z,13.08
2022-11-05T15:33:37.137Z,13.21
2022-11-05T15:37:35.233Z,13.11
2022-11-05T15:40:58.145Z,12.62
2022-11-05T15:44:21.189Z,12.84
2022-11-05T15:47:47.153Z,12.54
2022-11-05T15:51:10.232Z,12.58
2022-11-05T15:54:38.989Z,12.57
2022-11-05T15:58:10.194Z,12.66
2022-11-05T16:01:40.301Z,12.61
2022-11-05T16:05:04.247Z,12.56
2022-11-05T16:08:37.821Z,12.51
2022-11-05T16:12:01.225Z,12.47
2022-11-05T16:15:26.198Z,12.50
2022-11-05T16:18:52.223Z,12.29
2022-11-05T16:22:18.203Z,12.46
2022-11-05T16:25:55.315Z,12.51
2022-11-05T16:29:42.204Z,12.52
2022-11-05T16:33:06.201Z,12.35
2022-11-05T16:36:29.553Z,12.47
2022-11-05T16:39:54.910Z,12.58
2022-11-05T16:43:37.004Z,12.34
2022-11-05T16:47:04.741Z,12.58
2022-11-05T16:50:32.209Z,12.70
2022-11-05T16:53:56.191Z,12.70
2022-11-05T16:57:27.233Z,12.62
2022-11-05T17:00:52.220Z,12.61
2022-11-05T17:04:16.244Z,12.53
2022-11-05T17:07:41.497Z,12.53
2022-11-05T17:11:05.240Z,12.75
2022-11-05T17:14:28.233Z,12.53
2022-11-05T17:17:52.235Z,12.31
2022-11-05T17:21:16.229Z,12.59
2022-11-05T17:24:40.268Z,12.62
2022-11-05T17:28:03.217Z,12.44
2022-11-05T17:31:28.240Z,12.50
2022-11-05T17:34:51.232Z,12.45
2022-11-05T17:38:15.248Z,12.77
2022-11-05T17:41:39.538Z,12.59
2022-11-05T17:45:03.231Z,12.82
2022-11-05T17:48:27.241Z,12.85
2022-11-05T17:51:51.251Z,12.88
2022-11-05T17:55:24.229Z,12.88
2022-11-05T17:58:49.273Z,12.99
2022-11-05T18:02:18.312Z,13.04
2022-11-05T18:05:42.262Z,13.24
2022-11-05T18:09:06.246Z,13.19
2022-11-05T18:12:29.264Z,13.17
2022-11-05T18:15:53.264Z,13.41
2022-11-05T18:19:16.247Z,13.72
2022-11-05T18:22:48.267Z,13.63
2022-11-05T18:26:14.225Z,13.76
2022-11-05T18:29:39.077Z,13.99
2022-11-05T18:33:03.251Z,14.53
2022-11-05T18:36:39.253Z,14.64
2022-11-05T18:40:06.860Z,14.66
2022-11-05T18:43:30.265Z,14.50
2022-11-05T18:47:00.094Z,14.84
2022-11-05T18:50:24.254Z,15.29
2022-11-05T18:53:48.247Z,15.36
2022-11-05T18:57:12.298Z,15.19
2022-11-05T19:00:36.238Z,15.39
2022-11-05T19:03:54.382Z,15.40
2022-11-05T19:07:18.263Z,15.63
2022-11-05T19:10:42.278Z,15.97
2022-11-05T19:14:06.271Z,16.21
2022-11-05T19:17:30.631Z,16.66
2022-11-05T19:20:54.278Z,16.86
2022-11-05T19:24:18.301Z,16.82
2022-11-05T19:27:42.249Z,17.36
2022-11-05T19:31:06.654Z,17.49
2022-11-05T19:34:30.301Z,17.71
2022-11-05T19:37:54.281Z,16.86
2022-11-05T19:41:26.298Z,17.44
2022-11-05T19:44:51.303Z,17.73
2022-11-05T19:48:19.396Z,18.13
2022-11-05T19:51:46.287Z,17.81
2022-11-05T19:55:12.164Z,18.04
2022-11-05T19:58:36.281Z,18.12
2022-11-05T20:01:59.444Z,17.96
2022-11-05T20:05:23.290Z,18.30
2022-11-05T20:09:19.525Z,18.13
2022-11-05T20:12:31.284Z,17.71
2022-11-05T20:15:57.251Z,17.59
2022-11-05T20:19:24.275Z,17.71
2022-11-05T20:22:48.327Z,17.14
2022-11-05T20:26:12.310Z,17.12
2022-11-05T20:29:36.329Z,17.20
2022-11-05T20:33:00.266Z,16.84
2022-11-05T20:36:27.322Z,16.96
2022-11-05T20:39:52.294Z,17.63
2022-11-05T20:43:17.249Z,17.63
2022-11-05T20:46:41.318Z,17.86
2022-11-05T20:50:06.316Z,18.42
2022-11-05T20:53:30.902Z,18.21
2022-11-05T20:56:54.330Z,18.30
2022-11-05T21:00:20.302Z,18.36
2022-11-05T21:03:44.977Z,18.19
2022-11-05T21:07:09.302Z,18.25
2022-11-05T21:10:33.974Z,18.24
2022-11-05T21:13:58.349Z,18.41
2022-11-05T21:17:23.298Z,18.78
2022-11-05T21:20:46.364Z,18.63
2022-11-05T21:24:11.313Z,18.96
2022-11-05T21:27:36.471Z,19.26
2022-11-05T21:31:02.295Z,18.94
2022-11-05T21:34:27.447Z,19.34
2022-11-05T21:37:51.521Z,18.83
2022-11-05T21:41:20.365Z,18.99
2022-11-05T21:44:44.335Z,18.87
2022-11-05T21:48:08.314Z,18.75
2022-11-05T21:51:50.983Z,18.33
2022-11-05T21:55:34.364Z,18.66
2022-11-05T21:59:11.385Z,18.87
2022-11-05T22:02:31.480Z,18.71
2022-11-05T22:05:55.332Z,18.77
2022-11-05T22:09:19.351Z,18.69
2022-11-05T22:12:42.346Z,18.62
2022-11-05T22:16:12.357Z,18.63
2022-11-05T22:19:36.341Z,18.24
2022-11-05T22:23:01.371Z,18.21
2022-11-05T22:26:25.353Z,18.51
2022-11-05T22:29:48.365Z,18.25
2022-11-05T22:33:13.340Z,18.28
2022-11-05T22:36:37.355Z,18.09
2022-11-05T22:40:01.332Z,17.82
2022-11-05T22:43:25.369Z,17.76
2022-11-05T22:46:48.710Z,18.03
2022-11-05T22:50:14.463Z,17.97
2022-11-05T22:53:37.379Z,17.93
2022-11-05T22:57:01.352Z,18.16
2022-11-05T23:00:31.368Z,18.46
2022-11-05T23:03:57.323Z,18.73
2022-11-05T23:07:39.418Z,18.77
2022-11-05T23:11:37.427Z,18.64
2022-11-05T23:15:01.392Z,18.19
2022-11-05T23:18:43.393Z,18.38
2022-11-05T23:22:25.401Z,18.46
2022-11-05T23:25:50.942Z,18.38
2022-11-05T23:29:15.381Z,18.29
2022-11-05T23:32:39.437Z,18.65
2022-11-05T23:36:21.354Z,18.69
2022-11-05T23:39:44.400Z,18.34
2022-11-05T23:43:26.407Z,18.24
2022-11-05T23:47:08.464Z,17.75
2022-11-05T23:50:35.617Z,17.79
2022-11-05T23:54:03.409Z,17.92
2022-11-05T23:57:27.016Z,18.09
